createdAt,value
2023-01-04T00:00:32.073Z,1013.34
2023-01-04T00:01:02.795Z,1013.34
2023-01-04T00:01:35.666Z,1013.34
2023-01-04T00:02:06.780Z,1013.34
2023-01-04T00:02:34.380Z,1013.34
2023-01-04T00:02:54.848Z,1013.34
2023-01-04T00:03:26.861Z,1013.34
2023-01-04T00:03:59.475Z,1013.24
2023-01-04T00:04:30.762Z,1013.24
2023-01-04T00:05:02.878Z,1013.14
2023-01-04T00:05:34.741Z,1013.24
2023-01-04T00:06:07.475Z,1013.24
2023-01-04T00:06:34.132Z,1013.14
2023-01-04T00:06:54.659Z,1013.14
2023-01-04T00:07:26.715Z,1013.14
2023-01-04T00:07:58.761Z,1013.14
2023-01-04T00:08:30.627Z,1013.14
2023-01-04T00:09:02.622Z,1013.34
2023-01-04T00:09:34.543Z,1013.04
2023-01-04T00:10:07.032Z,1013.04
2023-01-04T00:10:34.232Z,1012.93
2023-01-04T00:10:54.759Z,1012.93
2023-01-04T00:11:27.532Z,1012.93
2023-01-04T00:11:58.770Z,1013.14
2023-01-04T00:12:31.417Z,1013.14
2023-01-04T00:13:02.798Z,1012.73
2023-01-04T00:13:35.233Z,1013.24
2023-01-04T00:14:06.745Z,1013.24
2023-01-04T00:14:34.237Z,1012.93
2023-01-04T00:14:54.716Z,1012.93
2023-01-04T00:15:26.999Z,1012.93
2023-01-04T00:16:05.492Z,1013.24
2023-01-04T00:16:30.795Z,1013.24
2023-01-04T00:17:03.648Z,1013.04
2023-01-04T00:17:34.219Z,1013.04
2023-01-04T00:17:50.639Z,1013.04
2023-01-04T00:18:22.733Z,1013.04
2023-01-04T00:18:39.893Z,1013.14
2023-01-04T00:19:11.412Z,1013.14
2023-01-04T00:19:34.425Z,1012.93
2023-01-04T00:19:58.665Z,1012.93
2023-01-04T00:20:31.084Z,1012.93
2023-01-04T00:21:02.789Z,1013.04
2023-01-04T00:21:34.302Z,1013.34
2023-01-04T00:21:50.655Z,1013.34
2023-01-04T00:22:23.303Z,1013.34
2023-01-04T00:22:40.391Z,1013.14
2023-01-04T00:23:10.602Z,1013.14
2023-01-04T00:23:34.170Z,1013.14
2023-01-04T00:23:58.752Z,1013.14
2023-01-04T00:24:31.339Z,1013.14
2023-01-04T00:25:02.771Z,1013.24
2023-01-04T00:25:35.627Z,1013.14
2023-01-04T00:26:06.760Z,1013.14
2023-01-04T00:26:34.182Z,1013.14
2023-01-04T00:26:54.633Z,1013.14
2023-01-04T00:27:26.745Z,1013.14
2023-01-04T00:27:59.375Z,1012.73
2023-01-04T00:28:30.624Z,1012.73
2023-01-04T00:29:03.361Z,1012.93
2023-01-04T00:29:34.199Z,1012.93
2023-01-04T00:29:50.725Z,1012.93
2023-01-04T00:30:22.859Z,1012.93
2023-01-04T00:30:39.848Z,1012.73
2023-01-04T00:31:11.610Z,1012.73
2023-01-04T00:31:34.984Z,1012.93
2023-01-04T00:31:58.598Z,1012.93
2023-01-04T00:32:30.660Z,1012.93
2023-01-04T00:33:02.752Z,1012.83
2023-01-04T00:33:34.295Z,1012.93
2023-01-04T00:33:50.675Z,1012.93
2023-01-04T00:34:23.549Z,1012.93
2023-01-04T00:34:40.685Z,1012.73
2023-01-04T00:35:11.059Z,1012.73
2023-01-04T00:35:45.689Z,1012.83
2023-01-04T00:35:58.847Z,1012.83
2023-01-04T00:36:31.616Z,1012.83
2023-01-04T00:37:02.811Z,1012.83
2023-01-04T00:37:35.527Z,1012.83
2023-01-04T00:38:06.782Z,1012.83
2023-01-04T00:38:34.292Z,1012.73
2023-01-04T00:38:54.751Z,1012.73
2023-01-04T00:39:26.631Z,1012.73
2023-01-04T00:39:59.493Z,1012.83
2023-01-04T00:40:30.887Z,1012.83
2023-01-04T00:41:03.463Z,1012.63
2023-01-04T00:41:57.455Z,1012.73
2023-01-04T00:42:07.221Z,1012.73
2023-01-04T00:42:34.159Z,1012.53
2023-01-04T00:42:54.651Z,1012.53
2023-01-04T00:43:26.758Z,1012.53
2023-01-04T00:43:58.814Z,1012.63
2023-01-04T00:44:30.778Z,1012.63
2023-01-04T00:45:02.917Z,1012.63
2023-01-04T00:45:34.509Z,1012.73
2023-01-04T00:46:07.134Z,1012.73
2023-01-04T00:46:34.321Z,1012.73
2023-01-04T00:46:54.719Z,1012.73
2023-01-04T00:47:27.339Z,1012.73
2023-01-04T00:47:58.782Z,1012.63
2023-01-04T00:48:31.486Z,1012.63
2023-01-04T00:49:02.814Z,1012.53
2023-01-04T00:49:35.388Z,1012.63
2023-01-04T00:50:06.815Z,1012.63
2023-01-04T00:50:34.388Z,1012.63
2023-01-04T00:50:55.315Z,1012.63
2023-01-04T00:51:26.840Z,1012.63
2023-01-04T00:51:59.473Z,1012.53
2023-01-04T00:52:30.858Z,1012.53
2023-01-04T00:53:03.409Z,1012.63
2023-01-04T00:53:34.373Z,1012.43
2023-01-04T00:53:50.736Z,1012.43
2023-01-04T00:54:22.788Z,1012.43
2023-01-04T00:54:40.211Z,1012.43
2023-01-04T00:55:11.538Z,1012.43
2023-01-04T00:55:34.249Z,1012.53
2023-01-04T00:55:58.919Z,1012.53
2023-01-04T00:56:30.768Z,1012.53
2023-01-04T00:57:02.848Z,1012.73
2023-01-04T00:57:34.323Z,1012.63
2023-01-04T00:57:50.779Z,1012.63
2023-01-04T00:58:23.274Z,1012.63
2023-01-04T00:58:40.378Z,1012.22
2023-01-04T00:59:10.685Z,1012.22
2023-01-04T00:59:34.208Z,1012.43
2023-01-04T00:59:58.891Z,1012.43
2023-01-04T01:00:32.171Z,1012.43
2023-01-04T01:01:02.738Z,1012.43
2023-01-04T01:01:35.501Z,1012.53
2023-01-04T01:02:06.850Z,1012.53
2023-01-04T01:02:34.465Z,1012.53
2023-01-04T01:02:54.809Z,1012.53
2023-01-04T01:03:26.931Z,1012.53
2023-01-04T01:03:59.364Z,1012.43
2023-01-04T01:04:30.616Z,1012.43
2023-01-04T01:05:03.559Z,1012.43
2023-01-04T01:05:34.162Z,1012.43
2023-01-04T01:05:50.900Z,1012.43
2023-01-04T01:06:22.681Z,1012.43
2023-01-04T01:06:39.752Z,1012.22
2023-01-04T01:07:11.385Z,1012.22
2023-01-04T01:07:34.230Z,1012.33
2023-01-04T01:07:58.746Z,1012.33
2023-01-04T01:08:30.610Z,1012.33
2023-01-04T01:09:02.799Z,1012.22
2023-01-04T01:09:34.182Z,1012.22
2023-01-04T01:09:51.217Z,1012.22
2023-01-04T01:10:23.843Z,1012.22
2023-01-04T01:10:40.811Z,1012.22
2023-01-04T01:11:10.678Z,1012.22
2023-01-04T01:11:34.247Z,1012.12
2023-01-04T01:11:58.677Z,1012.12
2023-01-04T01:12:31.292Z,1012.12
2023-01-04T01:13:02.692Z,1012.22
2023-01-04T01:13:36.301Z,1012.12
2023-01-04T01:14:06.622Z,1012.12
2023-01-04T01:14:34.277Z,1012.22
2023-01-04T01:15:00.145Z,1012.22
2023-01-04T01:15:26.870Z,1012.22
2023-01-04T01:15:59.558Z,1012.12
2023-01-04T01:16:53.819Z,1012.12
2023-01-04T01:17:03.759Z,1012.12
2023-01-04T01:17:34.175Z,1012.02
2023-01-04T01:17:50.661Z,1012.02
2023-01-04T01:18:22.675Z,1012.02
2023-01-04T01:18:39.850Z,1012.12
2023-01-04T01:19:11.569Z,1012.12
2023-01-04T01:19:34.629Z,1012.22
2023-01-04T01:19:58.687Z,1012.22
2023-01-04T01:20:30.847Z,1012.22
2023-01-04T01:21:02.802Z,1012.22
2023-01-04T01:21:34.274Z,1012.02
2023-01-04T01:21:50.662Z,1012.02
2023-01-04T01:22:23.411Z,1012.02
2023-01-04T01:22:40.426Z,1012.02
2023-01-04T01:23:10.752Z,1012.02
2023-01-04T01:23:34.143Z,1012.22
2023-01-04T01:23:58.718Z,1012.22
2023-01-04T01:24:31.233Z,1012.22
2023-01-04T01:25:03.085Z,1012.12
2023-01-04T01:25:35.155Z,1012.22
2023-01-04T01:26:06.770Z,1012.22
2023-01-04T01:26:34.266Z,1012.12
2023-01-04T01:26:54.655Z,1012.12
2023-01-04T01:27:26.660Z,1012.12
2023-01-04T01:27:59.216Z,1012.12
2023-01-04T01:28:30.735Z,1012.12
2023-01-04T01:29:03.488Z,1012.22
2023-01-04T01:29:34.861Z,1012.12
2023-01-04T01:30:07.753Z,1012.12
2023-01-04T01:30:34.665Z,1012.22
2023-01-04T01:30:54.827Z,1012.22
2023-01-04T01:31:26.892Z,1012.22
2023-01-04T01:31:58.883Z,1012.02
2023-01-04T01:32:30.658Z,1012.02
2023-01-04T01:33:02.714Z,1011.82
2023-01-04T01:33:35.008Z,1012.12
2023-01-04T01:34:06.957Z,1012.12
2023-01-04T01:34:34.231Z,1012.22
2023-01-04T01:34:54.693Z,1012.22
2023-01-04T01:35:27.467Z,1012.22
2023-01-04T01:35:58.644Z,1012.22
2023-01-04T01:36:31.417Z,1012.22
2023-01-04T01:37:02.719Z,1011.92
2023-01-04T01:37:35.329Z,1012.22
2023-01-04T01:38:06.658Z,1012.22
2023-01-04T01:38:34.703Z,1011.82
2023-01-04T01:38:54.699Z,1011.82
2023-01-04T01:39:26.766Z,1011.82
2023-01-04T01:39:59.478Z,1012.22
2023-01-04T01:40:30.888Z,1012.22
2023-01-04T01:41:03.368Z,1011.92
2023-01-04T01:41:34.361Z,1012.22
2023-01-04T01:41:50.705Z,1012.22
2023-01-04T01:42:22.750Z,1012.22
2023-01-04T01:42:39.912Z,1012.02
2023-01-04T01:43:11.391Z,1012.02
2023-01-04T01:43:34.269Z,1011.92
2023-01-04T01:43:58.730Z,1011.92
2023-01-04T01:44:30.693Z,1011.92
2023-01-04T01:45:03.027Z,1012.02
2023-01-04T01:45:34.362Z,1012.02
2023-01-04T01:45:50.933Z,1012.02
2023-01-04T01:46:23.460Z,1012.02
2023-01-04T01:46:40.472Z,1012.02
2023-01-04T01:47:10.721Z,1012.02
2023-01-04T01:47:34.275Z,1012.12
2023-01-04T01:47:58.796Z,1012.12
2023-01-04T01:48:31.332Z,1012.12
2023-01-04T01:49:02.722Z,1012.02
2023-01-04T01:49:35.557Z,1012.02
2023-01-04T01:50:06.892Z,1012.02
2023-01-04T01:50:34.481Z,1012.02
2023-01-04T01:50:54.768Z,1012.02
2023-01-04T01:51:26.654Z,1012.02
2023-01-04T01:51:59.596Z,1012.02
2023-01-04T01:52:30.692Z,1012.02
2023-01-04T01:53:03.937Z,1011.92
2023-01-04T01:53:34.411Z,1011.92
2023-01-04T01:53:50.795Z,1011.92
2023-01-04T01:54:22.763Z,1011.92
2023-01-04T01:54:39.770Z,1012.22
2023-01-04T01:55:11.623Z,1012.22
2023-01-04T01:55:34.331Z,1012.02
2023-01-04T01:55:58.933Z,1012.02
2023-01-04T01:56:30.677Z,1012.02
2023-01-04T01:57:02.754Z,1012.12
2023-01-04T01:57:35.036Z,1012.12
2023-01-04T01:58:06.611Z,1012.12
2023-01-04T01:58:34.273Z,1011.92
2023-01-04T01:58:54.738Z,1011.92
2023-01-04T01:59:27.303Z,1011.92
2023-01-04T01:59:58.619Z,1011.92
2023-01-04T02:00:31.636Z,1011.92
2023-01-04T02:01:02.755Z,1011.92
2023-01-04T02:01:36.582Z,1012.02
2023-01-04T02:02:06.800Z,1012.02
2023-01-04T02:02:34.508Z,1011.82
2023-01-04T02:02:54.927Z,1011.82
2023-01-04T02:03:26.751Z,1011.82
2023-01-04T02:03:59.521Z,1012.02
2023-01-04T02:04:30.754Z,1012.02
2023-01-04T02:05:03.581Z,1011.82
2023-01-04T02:05:35.429Z,1011.92
2023-01-04T02:06:07.416Z,1011.92
2023-01-04T02:06:34.958Z,1011.92
2023-01-04T02:06:54.698Z,1011.92
2023-01-04T02:07:26.604Z,1011.92
2023-01-04T02:07:58.682Z,1011.92
2023-01-04T02:08:30.754Z,1011.92
2023-01-04T02:09:02.650Z,1011.92
2023-01-04T02:09:34.364Z,1012.12
2023-01-04T02:09:50.793Z,1012.12
2023-01-04T02:10:23.492Z,1012.12
2023-01-04T02:10:40.523Z,1012.02
2023-01-04T02:11:10.696Z,1012.02
2023-01-04T02:11:34.434Z,1012.02
2023-01-04T02:11:58.856Z,1012.02
2023-01-04T02:12:31.337Z,1012.02
2023-01-04T02:13:02.707Z,1012.02
2023-01-04T02:13:36.357Z,1011.82
2023-01-04T02:14:06.793Z,1011.82
2023-01-04T02:14:34.213Z,1011.82
2023-01-04T02:14:54.657Z,1011.82
2023-01-04T02:15:26.975Z,1011.82
2023-01-04T02:15:59.635Z,1012.02
2023-01-04T02:16:30.872Z,1012.02
2023-01-04T02:17:03.528Z,1011.82
2023-01-04T02:17:34.505Z,1011.92
2023-01-04T02:17:50.823Z,1011.92
2023-01-04T02:18:22.666Z,1011.92
2023-01-04T02:18:39.794Z,1011.92
2023-01-04T02:19:11.517Z,1011.92
2023-01-04T02:19:34.401Z,1011.92
2023-01-04T02:19:58.864Z,1011.92
2023-01-04T02:20:30.732Z,1011.92
2023-01-04T02:21:02.818Z,1011.82
2023-01-04T02:21:34.324Z,1012.02
2023-01-04T02:21:50.828Z,1012.02
2023-01-04T02:22:23.390Z,1012.02
2023-01-04T02:22:40.489Z,1011.82
2023-01-04T02:23:10.720Z,1011.82
2023-01-04T02:23:34.466Z,1012.02
2023-01-04T02:23:58.609Z,1012.02
2023-01-04T02:24:31.396Z,1012.02
2023-01-04T02:25:02.941Z,1011.61
2023-01-04T02:25:35.446Z,1011.82
2023-01-04T02:26:06.610Z,1011.82
2023-01-04T02:26:34.275Z,1011.82
2023-01-04T02:26:54.734Z,1011.82
2023-01-04T02:27:26.827Z,1011.82
2023-01-04T02:27:59.535Z,1011.82
2023-01-04T02:28:30.767Z,1011.82
2023-01-04T02:29:03.432Z,1011.82
2023-01-04T02:29:35.538Z,1011.82
2023-01-04T02:30:07.882Z,1011.82
2023-01-04T02:30:34.540Z,1011.41
2023-01-04T02:30:54.865Z,1011.41
2023-01-04T02:31:26.937Z,1011.41
2023-01-04T02:31:58.698Z,1011.72
2023-01-04T02:32:30.702Z,1011.72
2023-01-04T02:33:02.745Z,1011.61
2023-01-04T02:33:34.427Z,1011.72
2023-01-04T02:33:50.632Z,1011.72
2023-01-04T02:34:23.304Z,1011.72
2023-01-04T02:34:40.905Z,1011.61
2023-01-04T02:35:11.129Z,1011.61
2023-01-04T02:35:34.391Z,1011.72
2023-01-04T02:35:58.853Z,1011.72
2023-01-04T02:36:31.312Z,1011.72
2023-01-04T02:37:02.657Z,1011.72
2023-01-04T02:37:35.529Z,1011.51
2023-01-04T02:38:06.743Z,1011.51
2023-01-04T02:38:34.162Z,1011.61
2023-01-04T02:38:54.669Z,1011.61
2023-01-04T02:39:26.767Z,1011.61
2023-01-04T02:39:59.238Z,1011.51
2023-01-04T02:40:30.675Z,1011.51
2023-01-04T02:41:03.544Z,1011.61
2023-01-04T02:41:35.118Z,1011.61
2023-01-04T02:42:07.491Z,1011.61
2023-01-04T02:42:34.212Z,1011.51
2023-01-04T02:42:54.672Z,1011.51
2023-01-04T02:43:26.762Z,1011.51
2023-01-04T02:43:58.611Z,1011.72
2023-01-04T02:44:30.672Z,1011.72
2023-01-04T02:45:02.927Z,1011.61
2023-01-04T02:45:35.202Z,1011.82
2023-01-04T02:46:06.649Z,1011.82
2023-01-04T02:46:34.360Z,1011.92
2023-01-04T02:46:54.826Z,1011.92
2023-01-04T02:47:27.323Z,1011.92
2023-01-04T02:47:58.635Z,1011.72
2023-01-04T02:48:31.319Z,1011.72
2023-01-04T02:49:02.695Z,1011.51
2023-01-04T02:49:35.455Z,1011.61
2023-01-04T02:50:06.847Z,1011.61
2023-01-04T02:50:34.611Z,1011.51
2023-01-04T02:50:54.997Z,1011.51
2023-01-04T02:51:26.575Z,1011.51
2023-01-04T02:51:59.378Z,1011.51
2023-01-04T02:52:30.672Z,1011.51
2023-01-04T02:53:03.564Z,1011.72
2023-01-04T02:53:34.501Z,1011.51
2023-01-04T02:53:50.778Z,1011.51
2023-01-04T02:54:22.728Z,1011.51
2023-01-04T02:54:39.775Z,1011.72
2023-01-04T02:55:11.812Z,1011.72
2023-01-04T02:55:34.301Z,1011.61
2023-01-04T02:55:58.895Z,1011.61
2023-01-04T02:56:30.714Z,1011.61
2023-01-04T02:57:05.697Z,1011.31
2023-01-04T02:57:34.353Z,1011.61
2023-01-04T02:57:50.753Z,1011.61
2023-01-04T02:58:23.284Z,1011.61
2023-01-04T02:58:40.462Z,1011.51
2023-01-04T02:59:10.668Z,1011.51
2023-01-04T02:59:35.284Z,1011.41
2023-01-04T02:59:58.684Z,1011.41
2023-01-04T03:00:31.717Z,1011.41
2023-01-04T03:01:02.740Z,1011.51
2023-01-04T03:01:35.274Z,1011.41
2023-01-04T03:02:07.078Z,1011.41
2023-01-04T03:02:34.462Z,1011.41
2023-01-04T03:02:54.840Z,1011.41
2023-01-04T03:03:26.956Z,1011.41
2023-01-04T03:03:59.412Z,1011.24
2023-01-04T03:04:30.715Z,1011.24
2023-01-04T03:05:02.924Z,1011.24
2023-01-04T03:05:34.692Z,1011.31
2023-01-04T03:06:07.520Z,1011.31
2023-01-04T03:06:34.243Z,1011.41
2023-01-04T03:06:54.714Z,1011.41
2023-01-04T03:07:26.733Z,1011.41
2023-01-04T03:07:58.683Z,1011.51
2023-01-04T03:08:30.684Z,1011.51
2023-01-04T03:09:02.761Z,1011.41
2023-01-04T03:09:34.361Z,1011.24
2023-01-04T03:09:50.652Z,1011.24
2023-01-04T03:10:23.751Z,1011.24
2023-01-04T03:10:40.745Z,1011.14
2023-01-04T03:11:10.695Z,1011.14
2023-01-04T03:11:34.652Z,1011.24
2023-01-04T03:11:58.624Z,1011.24
2023-01-04T03:12:31.238Z,1011.24
2023-01-04T03:13:02.675Z,1011.24
2023-01-04T03:13:35.442Z,1011.31
2023-01-04T03:14:33.183Z,1011.31
2023-01-04T03:14:39.289Z,1011.24
2023-01-04T03:15:10.841Z,1011.24
2023-01-04T03:15:34.641Z,1011.04
2023-01-04T03:15:58.864Z,1011.04
2023-01-04T03:16:30.872Z,1011.04
2023-01-04T03:17:03.496Z,1011.41
2023-01-04T03:17:34.591Z,1011.24
2023-01-04T03:18:07.626Z,1011.24
2023-01-04T03:18:34.561Z,1011.24
2023-01-04T03:18:55.006Z,1011.24
2023-01-04T03:19:26.624Z,1011.24
2023-01-04T03:19:58.838Z,1011.24
2023-01-04T03:20:30.845Z,1011.24
2023-01-04T03:21:02.597Z,1011.14
2023-01-04T03:21:35.018Z,1011.14
2023-01-04T03:22:06.794Z,1011.14
2023-01-04T03:22:34.982Z,1011.41
2023-01-04T03:22:54.731Z,1011.41
2023-01-04T03:23:26.645Z,1011.41
2023-01-04T03:23:59.437Z,1011.24
2023-01-04T03:24:30.725Z,1011.24
2023-01-04T03:25:03.841Z,1011.24
2023-01-04T03:25:34.477Z,1011.14
2023-01-04T03:25:50.927Z,1011.14
2023-01-04T03:26:22.704Z,1011.14
2023-01-04T03:26:39.758Z,1011.04
2023-01-04T03:27:11.447Z,1011.04
2023-01-04T03:27:34.412Z,1011.31
2023-01-04T03:27:58.701Z,1011.31
2023-01-04T03:28:30.691Z,1011.31
2023-01-04T03:29:02.751Z,1011.14
2023-01-04T03:29:34.939Z,1011.04
2023-01-04T03:30:06.827Z,1011.04
2023-01-04T03:30:34.240Z,1011.14
2023-01-04T03:30:54.878Z,1011.14
2023-01-04T03:31:27.272Z,1011.14
2023-01-04T03:31:58.808Z,1011.31
2023-01-04T03:32:31.861Z,1011.31
2023-01-04T03:33:02.771Z,1011.04
2023-01-04T03:33:35.225Z,1011.14
2023-01-04T03:34:06.685Z,1011.14
2023-01-04T03:34:34.357Z,1010.73
2023-01-04T03:34:54.791Z,1010.73
2023-01-04T03:35:26.928Z,1010.73
2023-01-04T03:35:59.531Z,1010.94
2023-01-04T03:36:30.733Z,1010.94
2023-01-04T03:37:03.352Z,1011.24
2023-01-04T03:37:35.327Z,1011.04
2023-01-04T03:38:07.429Z,1011.04
2023-01-04T03:38:34.419Z,1010.84
2023-01-04T03:38:54.778Z,1010.84
2023-01-04T03:39:26.763Z,1010.84
2023-01-04T03:39:58.718Z,1011.14
2023-01-04T03:40:30.960Z,1011.14
2023-01-04T03:41:02.835Z,1010.94
2023-01-04T03:41:34.374Z,1010.84
2023-01-04T03:41:50.754Z,1010.84
2023-01-04T03:42:23.506Z,1010.84
2023-01-04T03:42:40.586Z,1010.84
2023-01-04T03:43:10.976Z,1010.84
2023-01-04T03:43:34.492Z,1010.94
2023-01-04T03:43:58.762Z,1010.94
2023-01-04T03:44:31.425Z,1010.94
2023-01-04T03:45:09.742Z,1010.94
2023-01-04T03:45:36.484Z,1010.94
2023-01-04T03:46:06.687Z,1010.94
2023-01-04T03:46:34.347Z,1010.94
2023-01-04T03:46:54.803Z,1010.94
2023-01-04T03:47:26.615Z,1010.94
2023-01-04T03:47:59.374Z,1010.94
2023-01-04T03:48:30.743Z,1010.94
2023-01-04T03:49:03.456Z,1010.94
2023-01-04T03:49:34.450Z,1010.84
2023-01-04T03:49:50.783Z,1010.84
2023-01-04T03:50:22.824Z,1010.84
2023-01-04T03:50:39.748Z,1011.04
2023-01-04T03:51:11.544Z,1011.04
2023-01-04T03:51:34.831Z,1010.73
2023-01-04T03:51:58.670Z,1010.73
2023-01-04T03:52:30.589Z,1010.73
2023-01-04T03:53:02.684Z,1010.84
2023-01-04T03:53:36.161Z,1010.84
2023-01-04T03:54:06.778Z,1010.84
2023-01-04T03:54:34.997Z,1010.84
2023-01-04T03:54:54.672Z,1010.84
2023-01-04T03:55:26.817Z,1010.84
2023-01-04T03:55:58.720Z,1010.84
2023-01-04T03:56:34.913Z,1010.84
2023-01-04T03:57:02.804Z,1010.84
2023-01-04T03:57:34.279Z,1010.73
2023-01-04T03:57:50.751Z,1010.73
2023-01-04T03:58:22.796Z,1010.73
2023-01-04T03:58:39.925Z,1010.84
2023-01-04T03:59:11.341Z,1010.84
2023-01-04T03:59:34.447Z,1010.73
2023-01-04T03:59:58.628Z,1010.73
2023-01-04T04:00:31.060Z,1010.73
2023-01-04T04:01:02.691Z,1010.53
2023-01-04T04:01:34.504Z,1010.43
2023-01-04T04:01:50.830Z,1010.43
2023-01-04T04:02:23.262Z,1010.43
2023-01-04T04:02:40.309Z,1010.53
2023-01-04T04:03:10.658Z,1010.53
2023-01-04T04:03:34.269Z,1010.53
2023-01-04T04:03:58.852Z,1010.53
2023-01-04T04:04:31.399Z,1010.53
2023-01-04T04:05:02.811Z,1010.53
2023-01-04T04:05:34.331Z,1010.73
2023-01-04T04:06:07.339Z,1010.73
2023-01-04T04:06:34.245Z,1010.53
2023-01-04T04:06:54.974Z,1010.53
2023-01-04T04:07:26.627Z,1010.53
2023-01-04T04:07:58.700Z,1010.53
2023-01-04T04:08:30.621Z,1010.53
2023-01-04T04:09:02.649Z,1010.84
2023-01-04T04:09:34.610Z,1010.63
2023-01-04T04:10:06.728Z,1010.63
2023-01-04T04:10:34.270Z,1010.73
2023-01-04T04:10:54.788Z,1010.73
2023-01-04T04:11:27.296Z,1010.73
2023-01-04T04:11:58.710Z,1010.53
2023-01-04T04:12:31.430Z,1010.53
2023-01-04T04:13:02.747Z,1010.53
2023-01-04T04:13:35.389Z,1010.63
2023-01-04T04:14:06.637Z,1010.63
2023-01-04T04:14:37.285Z,1010.43
2023-01-04T04:14:54.884Z,1010.43
2023-01-04T04:15:26.918Z,1010.43
2023-01-04T04:15:59.567Z,1010.53
2023-01-04T04:16:30.796Z,1010.53
2023-01-04T04:17:03.438Z,1010.43
2023-01-04T04:17:34.254Z,1010.23
2023-01-04T04:18:07.597Z,1010.23
2023-01-04T04:18:34.302Z,1010.43
2023-01-04T04:18:54.701Z,1010.43
2023-01-04T04:19:26.665Z,1010.43
2023-01-04T04:19:58.631Z,1010.53
2023-01-04T04:20:30.825Z,1010.53
2023-01-04T04:21:02.688Z,1010.12
2023-01-04T04:21:34.392Z,1010.53
2023-01-04T04:22:06.780Z,1010.53
2023-01-04T04:22:34.300Z,1010.63
2023-01-04T04:22:54.688Z,1010.63
2023-01-04T04:23:27.289Z,1010.63
2023-01-04T04:23:58.736Z,1010.53
2023-01-04T04:24:31.375Z,1010.53
2023-01-04T04:25:02.881Z,1010.43
2023-01-04T04:25:35.399Z,1010.23
2023-01-04T04:26:06.711Z,1010.23
2023-01-04T04:26:34.310Z,1010.23
2023-01-04T04:26:54.820Z,1010.23
2023-01-04T04:27:26.632Z,1010.23
2023-01-04T04:27:59.470Z,1010.33
2023-01-04T04:28:30.693Z,1010.33
2023-01-04T04:29:03.456Z,1010.43
2023-01-04T04:29:34.926Z,1010.43
2023-01-04T04:30:07.537Z,1010.43
2023-01-04T04:30:34.225Z,1010.73
2023-01-04T04:30:54.738Z,1010.73
2023-01-04T04:31:26.789Z,1010.73
2023-01-04T04:31:58.766Z,1010.33
2023-01-04T04:32:30.624Z,1010.33
2023-01-04T04:33:02.603Z,1010.33
2023-01-04T04:33:34.525Z,1010.53
2023-01-04T04:34:06.808Z,1010.53
2023-01-04T04:34:34.892Z,1010.33
2023-01-04T04:34:54.613Z,1010.33
2023-01-04T04:35:27.570Z,1010.33
2023-01-04T04:35:58.739Z,1010.43
2023-01-04T04:36:31.340Z,1010.43
2023-01-04T04:37:02.701Z,1010.53
2023-01-04T04:37:36.228Z,1010.33
2023-01-04T04:38:22.574Z,1010.33
2023-01-04T04:38:41.435Z,1010.23
2023-01-04T04:39:10.662Z,1010.23
2023-01-04T04:39:35.108Z,1010.43
2023-01-04T04:39:58.702Z,1010.43
2023-01-04T04:40:30.728Z,1010.43
2023-01-04T04:41:03.576Z,1010.43
2023-01-04T04:41:34.191Z,1010.53
2023-01-04T04:41:50.785Z,1010.53
2023-01-04T04:42:22.528Z,1010.53
2023-01-04T04:42:39.774Z,1010.43
2023-01-04T04:43:11.268Z,1010.43
2023-01-04T04:43:34.346Z,1010.43
2023-01-04T04:43:58.675Z,1010.43
2023-01-04T04:44:30.823Z,1010.43
2023-01-04T04:45:03.487Z,1010.23
2023-01-04T04:45:34.429Z,1010.43
2023-01-04T04:46:06.752Z,1010.43
2023-01-04T04:46:34.273Z,1010.23
2023-01-04T04:46:54.687Z,1010.23
2023-01-04T04:47:27.435Z,1010.23
2023-01-04T04:47:58.727Z,1010.12
2023-01-04T04:48:31.323Z,1010.12
2023-01-04T04:49:02.651Z,1010.12
2023-01-04T04:49:35.464Z,1010.02
2023-01-04T04:50:06.881Z,1010.02
2023-01-04T04:50:34.602Z,1010.23
2023-01-04T04:50:54.857Z,1010.23
2023-01-04T04:51:26.670Z,1010.23
2023-01-04T04:51:59.459Z,1010.02
2023-01-04T04:52:30.705Z,1010.02
2023-01-04T04:53:03.350Z,1009.92
2023-01-04T04:53:34.383Z,1010.12
2023-01-04T04:54:07.342Z,1010.12
2023-01-04T04:54:34.565Z,1009.92
2023-01-04T04:54:54.578Z,1009.92
2023-01-04T04:55:26.880Z,1009.92
2023-01-04T04:55:58.694Z,1010.12
2023-01-04T04:56:30.715Z,1010.12
2023-01-04T04:57:02.572Z,1010.02
2023-01-04T04:57:34.342Z,1010.12
2023-01-04T04:57:50.835Z,1010.12
2023-01-04T04:58:23.284Z,1010.12
2023-01-04T04:58:40.465Z,1010.02
2023-01-04T04:59:10.587Z,1010.02
2023-01-04T04:59:34.911Z,1010.02
2023-01-04T04:59:58.769Z,1010.02
2023-01-04T05:00:31.510Z,1010.02
2023-01-04T05:01:02.761Z,1010.02
2023-01-04T05:01:35.809Z,1009.82
2023-01-04T05:02:06.844Z,1009.82
2023-01-04T05:02:34.390Z,1009.92
2023-01-04T05:02:54.771Z,1009.92
2023-01-04T05:03:26.767Z,1009.92
2023-01-04T05:03:59.794Z,1010.12
2023-01-04T05:04:30.615Z,1010.12
2023-01-04T05:05:02.866Z,1010.23
2023-01-04T05:05:35.135Z,1010.02
2023-01-04T05:06:07.375Z,1010.02
2023-01-04T05:06:34.363Z,1009.92
2023-01-04T05:06:54.870Z,1009.92
2023-01-04T05:07:26.711Z,1009.92
2023-01-04T05:07:58.797Z,1009.82
2023-01-04T05:08:30.626Z,1009.82
2023-01-04T05:09:02.808Z,1009.82
2023-01-04T05:09:34.881Z,1009.92
2023-01-04T05:10:06.691Z,1009.92
2023-01-04T05:10:34.453Z,1009.82
2023-01-04T05:10:54.845Z,1009.82
2023-01-04T05:11:27.240Z,1009.82
2023-01-04T05:11:58.584Z,1010.12
2023-01-04T05:12:31.405Z,1010.12
2023-01-04T05:13:02.747Z,1010.02
2023-01-04T05:13:35.324Z,1009.92
2023-01-04T05:14:06.581Z,1009.92
2023-01-04T05:14:34.613Z,1010.12
2023-01-04T05:14:54.757Z,1010.12
2023-01-04T05:15:26.889Z,1010.12
2023-01-04T05:15:59.493Z,1009.82
2023-01-04T05:16:30.811Z,1009.82
2023-01-04T05:17:03.487Z,1010.12
2023-01-04T05:17:34.305Z,1010.02
2023-01-04T05:18:07.436Z,1010.02
2023-01-04T05:18:34.318Z,1010.12
2023-01-04T05:18:54.693Z,1010.12
2023-01-04T05:19:26.553Z,1010.12
2023-01-04T05:19:58.642Z,1009.82
2023-01-04T05:20:30.828Z,1009.82
2023-01-04T05:21:02.807Z,1010.02
2023-01-04T05:21:34.342Z,1010.12
2023-01-04T05:22:06.829Z,1010.12
2023-01-04T05:22:34.686Z,1009.92
2023-01-04T05:22:55.051Z,1009.92
2023-01-04T05:23:27.383Z,1009.92
2023-01-04T05:23:58.716Z,1010.02
2023-01-04T05:24:31.743Z,1010.02
2023-01-04T05:25:02.735Z,1009.92
2023-01-04T05:25:35.693Z,1010.02
2023-01-04T05:26:06.713Z,1010.02
2023-01-04T05:26:34.200Z,1009.92
2023-01-04T05:26:54.635Z,1009.92
2023-01-04T05:27:26.671Z,1009.92
2023-01-04T05:27:59.348Z,1009.82
2023-01-04T05:28:30.620Z,1009.82
2023-01-04T05:29:03.544Z,1009.92
2023-01-04T05:29:34.327Z,1009.82
2023-01-04T05:29:50.813Z,1009.82
2023-01-04T05:30:22.792Z,1009.82
2023-01-04T05:30:39.705Z,1009.92
2023-01-04T05:31:11.514Z,1009.92
2023-01-04T05:31:34.571Z,1009.72
2023-01-04T05:31:58.751Z,1009.72
2023-01-04T05:32:30.625Z,1009.72
2023-01-04T05:33:02.761Z,1009.82
2023-01-04T05:33:34.236Z,1009.82
2023-01-04T05:34:06.752Z,1009.82
2023-01-04T05:34:34.411Z,1009.92
2023-01-04T05:34:55.479Z,1009.92
2023-01-04T05:35:27.516Z,1009.92
2023-01-04T05:35:58.749Z,1009.72
2023-01-04T05:36:31.289Z,1009.72
2023-01-04T05:37:18.779Z,1009.62
2023-01-04T05:37:50.704Z,1010.02
2023-01-04T05:38:22.781Z,1010.02
2023-01-04T05:38:40.717Z,1009.92
2023-01-04T05:39:10.719Z,1009.92
2023-01-04T05:39:34.427Z,1009.72
2023-01-04T05:39:58.719Z,1009.72
2023-01-04T05:40:31.144Z,1009.72
2023-01-04T05:41:04.159Z,1009.62
2023-01-04T05:41:34.349Z,1009.82
2023-01-04T05:42:07.455Z,1009.82
2023-01-04T05:42:34.599Z,1009.92
2023-01-04T05:42:55.176Z,1009.92
2023-01-04T05:43:26.604Z,1009.92
2023-01-04T05:43:58.697Z,1009.72
2023-01-04T05:44:30.660Z,1009.72
2023-01-04T05:45:02.858Z,1009.62
2023-01-04T05:45:34.421Z,1009.62
2023-01-04T05:45:50.942Z,1009.62
2023-01-04T05:46:23.701Z,1009.62
2023-01-04T05:46:40.634Z,1009.51
2023-01-04T05:47:14.852Z,1009.51
2023-01-04T05:47:34.236Z,1009.62
2023-01-04T05:47:58.714Z,1009.62
2023-01-04T05:48:31.359Z,1009.62